NKS1 KORD-KDCA
Flight info
| Callsign | NKS1 |
|---|---|
| Flight time | 1h 9m |
| Altitude | 37000 |
| Route | MOBLE ADIME OTENS ANEWA JERRI BUCKO FRDMM6 |
| Aircraft | A20N/M-SDE2E3FGHIRWXY/LB1 |
Departure
| Time | 2026-05-07 00:23 |
|---|---|
| Airport | Chicago O'Hare International Airport (KORD) |
Arrival
| Time | 2026-05-07 01:33 |
|---|---|
| Airport | Ronald Reagan Washington National Airport (KDCA) |
| Time | Latitude | Longitude | Altitude | Speed | Heading |
|---|---|---|---|---|---|
| 2026-05-07 00:00 | 41.97329 | -87.90386 | 665 ft | 0 kts | 90° |
| 2026-05-07 00:16 | 41.97330 | -87.90404 | 665 ft | 2 kts | 90° |
| 2026-05-07 00:16 | 41.97331 | -87.90425 | 665 ft | 2 kts | 114° |
| 2026-05-07 00:16 | 41.97340 | -87.90441 | 665 ft | 2 kts | 145° |
| 2026-05-07 00:17 | 41.97353 | -87.90448 | 665 ft | 1 kts | 175° |
| 2026-05-07 00:17 | 41.97359 | -87.90448 | 665 ft | 1 kts | 182° |
| 2026-05-07 00:17 | 41.97361 | -87.90448 | 665 ft | 0 kts | 181° |
| 2026-05-07 00:19 | 41.97337 | -87.90449 | 665 ft | 8 kts | 181° |
| 2026-05-07 00:19 | 41.97234 | -87.90443 | 665 ft | 22 kts | 167° |
| 2026-05-07 00:19 | 41.97137 | -87.90272 | 663 ft | 29 kts | 86° |
| 2026-05-07 00:19 | 41.97137 | -87.89991 | 661 ft | 29 kts | 89° |
| 2026-05-07 00:20 | 41.97189 | -87.89735 | 656 ft | 28 kts | 68° |
| 2026-05-07 00:20 | 41.97208 | -87.89502 | 655 ft | 25 kts | 114° |
| 2026-05-07 00:20 | 41.97196 | -87.89277 | 655 ft | 24 kts | 90° |
| 2026-05-07 00:20 | 41.97195 | -87.89139 | 654 ft | 24 kts | 90° |
| 2026-05-07 00:21 | 41.97195 | -87.89086 | 654 ft | 23 kts | 90° |
| 2026-05-07 00:21 | 41.97197 | -87.88867 | 654 ft | 23 kts | 89° |
| 2026-05-07 00:21 | 41.97197 | -87.88654 | 654 ft | 22 kts | 90° |
| 2026-05-07 00:21 | 41.97182 | -87.88454 | 654 ft | 20 kts | 122° |
| 2026-05-07 00:22 | 41.97166 | -87.88272 | 654 ft | 20 kts | 91° |
| 2026-05-07 00:22 | 41.97158 | -87.88084 | 651 ft | 19 kts | 116° |
| 2026-05-07 00:22 | 41.97039 | -87.88039 | 652 ft | 18 kts | 181° |
| 2026-05-07 00:22 | 41.96921 | -87.88068 | 652 ft | 17 kts | 212° |
| 2026-05-07 00:23 | 41.96677 | -87.88361 | 655 ft | 82 kts | 224° |
| 2026-05-07 00:23 | 41.96084 | -87.89052 | 655 ft | 141 kts | 222° |
| 2026-05-07 00:23 | 41.95241 | -87.90022 | 941 ft | 164 kts | 224° |
| 2026-05-07 00:23 | 41.94411 | -87.90951 | 1682 ft | 156 kts | 227° |
| 2026-05-07 00:24 | 41.93524 | -87.91898 | 2152 ft | 172 kts | 225° |
| 2026-05-07 00:24 | 41.92401 | -87.92723 | 2511 ft | 205 kts | 197° |
| 2026-05-07 00:24 | 41.90892 | -87.92532 | 2982 ft | 234 kts | 152° |
| 2026-05-07 00:24 | 41.89821 | -87.90917 | 3641 ft | 240 kts | 104° |
| 2026-05-07 00:25 | 41.89684 | -87.88756 | 4371 ft | 238 kts | 85° |
| 2026-05-07 00:25 | 41.89848 | -87.86500 | 4887 ft | 250 kts | 76° |
| 2026-05-07 00:25 | 41.90351 | -87.84244 | 5420 ft | 260 kts | 63° |
| 2026-05-07 00:25 | 41.90944 | -87.81858 | 5851 ft | 281 kts | 81° |
| 2026-05-07 00:26 | 41.90884 | -87.75157 | 6907 ft | 300 kts | 91° |
| 2026-05-07 00:26 | 41.90785 | -87.50117 | 10406 ft | 316 kts | 75° |
| 2026-05-07 00:26 | 41.91332 | -87.47189 | 10747 ft | 333 kts | 78° |
| 2026-05-07 00:26 | 41.91640 | -87.44038 | 11061 ft | 350 kts | 84° |
| 2026-05-07 00:27 | 41.93240 | -87.19080 | 13150 ft | 366 kts | 83° |
| 2026-05-07 00:27 | 41.97858 | -86.63497 | 17239 ft | 380 kts | 91° |
| 2026-05-07 00:27 | 41.96437 | -86.32480 | 20677 ft | 371 kts | 113° |
| 2026-05-07 00:27 | 41.95824 | -86.29190 | 21432 ft | 366 kts | 107° |
| 2026-05-07 00:28 | 41.92536 | -86.14108 | 27223 ft | 428 kts | 114° |
| 2026-05-07 00:28 | 41.91925 | -86.10294 | 28026 ft | 426 kts | 100° |
| 2026-05-07 00:28 | 41.91734 | -86.06293 | 28269 ft | 432 kts | 97° |
| 2026-05-07 00:28 | 41.87877 | -85.51109 | 31160 ft | 430 kts | 108° |
| 2026-05-07 00:29 | 41.83559 | -85.20690 | 41141 ft | 426 kts | 120° |
| 2026-05-07 00:29 | 41.82345 | -85.17191 | 41460 ft | 420 kts | 124° |
| 2026-05-07 00:30 | 41.79303 | -85.04117 | 37581 ft | 542 kts | 112° |
| 2026-05-07 00:30 | 41.78233 | -84.99277 | 36985 ft | 557 kts | 112° |
| 2026-05-07 00:30 | 41.77314 | -84.94164 | 36496 ft | 575 kts | 108° |
| 2026-05-07 00:30 | 41.76537 | -84.88876 | 36268 ft | 583 kts | 107° |
| 2026-05-07 00:31 | 41.75155 | -84.79141 | 36247 ft | 583 kts | 108° |
| 2026-05-07 00:31 | 41.74368 | -84.73845 | 36112 ft | 582 kts | 108° |
| 2026-05-07 00:31 | 41.73559 | -84.68574 | 35604 ft | 579 kts | 108° |
| 2026-05-07 00:32 | 41.71890 | -84.58057 | 35105 ft | 581 kts | 108° |
| 2026-05-07 00:32 | 41.70193 | -84.47534 | 35013 ft | 583 kts | 109° |
| 2026-05-07 00:33 | 41.68469 | -84.36918 | 35029 ft | 585 kts | 109° |
| 2026-05-07 00:33 | 41.66743 | -84.26275 | 35022 ft | 585 kts | 110° |
| 2026-05-07 00:34 | 41.65020 | -84.15705 | 35029 ft | 585 kts | 110° |
| 2026-05-07 00:34 | 41.63272 | -84.05138 | 35024 ft | 586 kts | 110° |
| 2026-05-07 00:35 | 41.61507 | -83.94509 | 35020 ft | 589 kts | 110° |
| 2026-05-07 00:35 | 41.59728 | -83.83824 | 35011 ft | 592 kts | 110° |
| 2026-05-07 00:36 | 41.57918 | -83.73033 | 35000 ft | 595 kts | 109° |
| 2026-05-07 00:36 | 41.56107 | -83.62305 | 35004 ft | 597 kts | 110° |
| 2026-05-07 00:37 | 41.54270 | -83.51489 | 34991 ft | 594 kts | 110° |
| 2026-05-07 00:37 | 41.52451 | -83.40799 | 34994 ft | 593 kts | 110° |
| 2026-05-07 00:38 | 41.50613 | -83.30100 | 34987 ft | 591 kts | 110° |
| 2026-05-07 00:38 | 41.48769 | -83.19461 | 34988 ft | 592 kts | 111° |
| 2026-05-07 00:39 | 41.46918 | -83.08812 | 34981 ft | 593 kts | 111° |
| 2026-05-07 00:39 | 41.45050 | -82.98139 | 34986 ft | 594 kts | 111° |
| 2026-05-07 00:40 | 41.43157 | -82.87384 | 34994 ft | 597 kts | 110° |
| 2026-05-07 00:40 | 41.41270 | -82.76685 | 34994 ft | 596 kts | 110° |
| 2026-05-07 00:41 | 41.38977 | -82.66187 | 34992 ft | 584 kts | 122° |
| 2026-05-07 00:41 | 41.37309 | -82.61326 | 34998 ft | 572 kts | 129° |
| 2026-05-07 00:41 | 41.35319 | -82.56879 | 34994 ft | 560 kts | 137° |
| 2026-05-07 00:42 | 41.33011 | -82.52766 | 34993 ft | 546 kts | 144° |
| 2026-05-07 00:42 | 41.30485 | -82.49068 | 34993 ft | 537 kts | 148° |
| 2026-05-07 00:42 | 41.25277 | -82.42043 | 34994 ft | 535 kts | 149° |
| 2026-05-07 00:43 | 41.20046 | -82.34962 | 34987 ft | 538 kts | 149° |
| 2026-05-07 00:43 | 41.14807 | -82.27778 | 34985 ft | 539 kts | 149° |
| 2026-05-07 00:44 | 41.09594 | -82.20607 | 34982 ft | 539 kts | 149° |
| 2026-05-07 00:44 | 41.04394 | -82.13464 | 35143 ft | 542 kts | 149° |
| 2026-05-07 00:45 | 41.01786 | -82.09888 | 35040 ft | 543 kts | 149° |
| 2026-05-07 00:45 | 40.99143 | -82.06265 | 35078 ft | 541 kts | 149° |
| 2026-05-07 00:45 | 40.93969 | -81.99181 | 35006 ft | 538 kts | 149° |
| 2026-05-07 00:46 | 40.88744 | -81.92061 | 34998 ft | 538 kts | 149° |
| 2026-05-07 00:46 | 40.83514 | -81.84950 | 34999 ft | 539 kts | 149° |
| 2026-05-07 00:47 | 40.78308 | -81.77882 | 35002 ft | 539 kts | 149° |
| 2026-05-07 00:47 | 40.73067 | -81.70789 | 35000 ft | 539 kts | 149° |
| 2026-05-07 00:48 | 40.67838 | -81.63726 | 34993 ft | 541 kts | 149° |
| 2026-05-07 00:48 | 40.62623 | -81.56696 | 34992 ft | 540 kts | 149° |
| 2026-05-07 00:49 | 40.57361 | -81.49623 | 34997 ft | 540 kts | 149° |
| 2026-05-07 00:49 | 40.52076 | -81.42548 | 35001 ft | 542 kts | 149° |
| 2026-05-07 00:50 | 40.46809 | -81.35504 | 34997 ft | 543 kts | 149° |
| 2026-05-07 00:50 | 40.41550 | -81.28468 | 34886 ft | 538 kts | 149° |
| 2026-05-07 00:51 | 40.38925 | -81.24971 | 34754 ft | 537 kts | 150° |
| 2026-05-07 00:51 | 40.36318 | -81.21500 | 34621 ft | 536 kts | 150° |
| 2026-05-07 00:51 | 40.33701 | -81.18023 | 34488 ft | 536 kts | 150° |
| 2026-05-07 00:51 | 40.31082 | -81.14555 | 34350 ft | 538 kts | 150° |
| 2026-05-07 00:52 | 40.28469 | -81.11086 | 34191 ft | 536 kts | 150° |
| 2026-05-07 00:52 | 40.25832 | -81.07594 | 34055 ft | 536 kts | 149° |
| 2026-05-07 00:52 | 40.23215 | -81.04139 | 33915 ft | 539 kts | 149° |
| 2026-05-07 00:52 | 40.20611 | -81.00699 | 33780 ft | 538 kts | 149° |
| 2026-05-07 00:53 | 40.17968 | -80.97210 | 33628 ft | 539 kts | 149° |
| 2026-05-07 00:53 | 40.15337 | -80.93740 | 33490 ft | 539 kts | 150° |
| 2026-05-07 00:53 | 40.12702 | -80.90266 | 33350 ft | 538 kts | 149° |
| 2026-05-07 00:53 | 40.10088 | -80.86827 | 33221 ft | 538 kts | 149° |
| 2026-05-07 00:54 | 40.07444 | -80.83354 | 33096 ft | 539 kts | 149° |
| 2026-05-07 00:54 | 40.04789 | -80.79869 | 32967 ft | 539 kts | 149° |
| 2026-05-07 00:54 | 40.02159 | -80.76422 | 32836 ft | 539 kts | 149° |
| 2026-05-07 00:54 | 39.99522 | -80.72964 | 32574 ft | 537 kts | 149° |
| 2026-05-07 00:55 | 39.96907 | -80.69539 | 32331 ft | 536 kts | 149° |
| 2026-05-07 00:55 | 39.94277 | -80.66100 | 32077 ft | 533 kts | 149° |
| 2026-05-07 00:55 | 39.91674 | -80.62711 | 31833 ft | 536 kts | 149° |
| 2026-05-07 00:55 | 39.89037 | -80.59274 | 31549 ft | 533 kts | 149° |
| 2026-05-07 00:56 | 39.87555 | -80.57350 | 31408 ft | 535 kts | 148° |
| 2026-05-07 00:56 | 39.84453 | -80.53320 | 31120 ft | 536 kts | 148° |
| 2026-05-07 00:57 | 39.81795 | -80.49864 | 30973 ft | 534 kts | 148° |
| 2026-05-07 00:57 | 39.79202 | -80.46493 | 30971 ft | 533 kts | 148° |
| 2026-05-07 00:57 | 39.74497 | -80.40388 | 30974 ft | 531 kts | 148° |
| 2026-05-07 00:58 | 39.69268 | -80.33636 | 30966 ft | 533 kts | 149° |
| 2026-05-07 00:58 | 39.64023 | -80.26872 | 30976 ft | 530 kts | 149° |
| 2026-05-07 00:59 | 39.56710 | -80.17453 | 30979 ft | 528 kts | 148° |
| 2026-05-07 01:00 | 39.51527 | -80.10802 | 30987 ft | 528 kts | 148° |
| 2026-05-07 01:00 | 39.46275 | -80.04086 | 30980 ft | 530 kts | 148° |
| 2026-05-07 01:01 | 39.41062 | -79.97411 | 30983 ft | 528 kts | 148° |
| 2026-05-07 01:01 | 39.35849 | -79.90758 | 30980 ft | 525 kts | 148° |
| 2026-05-07 01:02 | 39.31080 | -79.83549 | 30963 ft | 551 kts | 131° |
| 2026-05-07 01:02 | 39.29391 | -79.79023 | 30961 ft | 568 kts | 117° |
| 2026-05-07 01:02 | 39.28407 | -79.74029 | 30964 ft | 581 kts | 103° |
| 2026-05-07 01:03 | 39.27721 | -79.63636 | 30968 ft | 587 kts | 96° |
| 2026-05-07 01:03 | 39.27078 | -79.53187 | 30959 ft | 586 kts | 99° |
| 2026-05-07 01:04 | 39.26227 | -79.42800 | 30955 ft | 578 kts | 100° |
| 2026-05-07 01:04 | 39.25354 | -79.32536 | 30950 ft | 579 kts | 100° |
| 2026-05-07 01:04 | 39.24927 | -79.27371 | 30953 ft | 566 kts | 101° |
| 2026-05-07 01:05 | 39.24515 | -79.22383 | 30606 ft | 557 kts | 100° |
| 2026-05-07 01:05 | 39.24103 | -79.17443 | 30095 ft | 551 kts | 100° |
| 2026-05-07 01:05 | 39.23690 | -79.12571 | 29582 ft | 545 kts | 101° |
| 2026-05-07 01:05 | 39.23280 | -79.07791 | 29086 ft | 540 kts | 101° |
| 2026-05-07 01:06 | 39.22864 | -79.02994 | 28576 ft | 535 kts | 102° |
| 2026-05-07 01:06 | 39.22452 | -78.98276 | 28064 ft | 530 kts | 101° |
| 2026-05-07 01:06 | 39.22035 | -78.93571 | 27549 ft | 526 kts | 101° |
| 2026-05-07 01:06 | 39.21590 | -78.88890 | 27036 ft | 522 kts | 101° |
| 2026-05-07 01:07 | 39.21143 | -78.84321 | 26530 ft | 518 kts | 102° |
| 2026-05-07 01:07 | 39.20682 | -78.79713 | 26018 ft | 515 kts | 102° |
| 2026-05-07 01:07 | 39.20242 | -78.75212 | 25518 ft | 512 kts | 102° |
| 2026-05-07 01:07 | 39.19797 | -78.70662 | 25010 ft | 508 kts | 101° |
| 2026-05-07 01:08 | 39.19347 | -78.66157 | 24503 ft | 506 kts | 100° |
| 2026-05-07 01:08 | 39.18902 | -78.61641 | 24010 ft | 504 kts | 100° |
| 2026-05-07 01:08 | 39.18473 | -78.57226 | 23528 ft | 502 kts | 101° |
| 2026-05-07 01:08 | 39.18039 | -78.52794 | 23043 ft | 499 kts | 101° |
| 2026-05-07 01:09 | 39.17588 | -78.48364 | 22563 ft | 497 kts | 100° |
| 2026-05-07 01:09 | 39.17146 | -78.43973 | 22079 ft | 494 kts | 99° |
| 2026-05-07 01:09 | 39.16702 | -78.39573 | 21376 ft | 497 kts | 101° |
| 2026-05-07 01:09 | 39.16058 | -78.35213 | 20655 ft | 497 kts | 108° |
| 2026-05-07 01:10 | 39.15108 | -78.30969 | 19930 ft | 495 kts | 112° |
| 2026-05-07 01:10 | 39.14039 | -78.26740 | 19155 ft | 494 kts | 114° |
| 2026-05-07 01:10 | 39.12965 | -78.22602 | 18431 ft | 493 kts | 112° |
| 2026-05-07 01:10 | 39.11888 | -78.18417 | 17702 ft | 492 kts | 112° |
| 2026-05-07 01:11 | 39.10840 | -78.14247 | 16980 ft | 490 kts | 112° |
| 2026-05-07 01:11 | 39.09801 | -78.10092 | 16263 ft | 488 kts | 111° |
| 2026-05-07 01:11 | 39.08757 | -78.05965 | 15538 ft | 485 kts | 111° |
| 2026-05-07 01:11 | 39.07706 | -78.01859 | 14817 ft | 482 kts | 111° |
| 2026-05-07 01:12 | 39.06675 | -77.97825 | 14305 ft | 474 kts | 111° |
| 2026-05-07 01:12 | 39.05665 | -77.93876 | 14076 ft | 451 kts | 111° |
| 2026-05-07 01:12 | 39.04716 | -77.90158 | 13722 ft | 424 kts | 111° |
| 2026-05-07 01:12 | 39.03812 | -77.86628 | 13021 ft | 408 kts | 111° |
| 2026-05-07 01:13 | 39.02951 | -77.83277 | 12506 ft | 389 kts | 112° |
| 2026-05-07 01:13 | 39.02120 | -77.80044 | 12102 ft | 370 kts | 112° |
| 2026-05-07 01:13 | 39.01339 | -77.77002 | 11659 ft | 351 kts | 112° |
| 2026-05-07 01:13 | 39.00574 | -77.74038 | 11016 ft | 345 kts | 113° |
| 2026-05-07 01:14 | 38.99946 | -77.71632 | 10406 ft | 343 kts | 113° |
| 2026-05-07 01:14 | 38.99202 | -77.68781 | 9684 ft | 340 kts | 113° |
| 2026-05-07 01:14 | 38.98453 | -77.65893 | 8969 ft | 336 kts | 114° |
| 2026-05-07 01:14 | 38.97673 | -77.63150 | 8367 ft | 327 kts | 115° |
| 2026-05-07 01:15 | 38.96889 | -77.60484 | 8046 ft | 309 kts | 115° |
| 2026-05-07 01:15 | 38.96124 | -77.57910 | 8013 ft | 305 kts | 116° |
| 2026-05-07 01:15 | 38.95370 | -77.55379 | 8009 ft | 305 kts | 115° |
| 2026-05-07 01:15 | 38.94651 | -77.52881 | 7995 ft | 291 kts | 110° |
| 2026-05-07 01:16 | 38.94552 | -77.50350 | 7965 ft | 281 kts | 74° |
| 2026-05-07 01:16 | 38.95244 | -77.48080 | 7988 ft | 266 kts | 63° |
| 2026-05-07 01:16 | 38.96056 | -77.45946 | 7999 ft | 264 kts | 62° |
| 2026-05-07 01:16 | 38.96852 | -77.43842 | 8094 ft | 257 kts | 63° |
| 2026-05-07 01:17 | 38.97575 | -77.41830 | 8033 ft | 242 kts | 65° |
| 2026-05-07 01:17 | 38.98255 | -77.39855 | 8015 ft | 241 kts | 65° |
| 2026-05-07 01:17 | 38.98917 | -77.37884 | 7841 ft | 244 kts | 66° |
| 2026-05-07 01:17 | 38.99589 | -77.35860 | 7369 ft | 250 kts | 66° |
| 2026-05-07 01:18 | 39.00280 | -77.33781 | 6889 ft | 254 kts | 66° |
| 2026-05-07 01:18 | 39.00970 | -77.31715 | 6490 ft | 254 kts | 67° |
| 2026-05-07 01:18 | 39.01676 | -77.29617 | 6133 ft | 251 kts | 67° |
| 2026-05-07 01:18 | 39.02345 | -77.27616 | 6003 ft | 236 kts | 66° |
| 2026-05-07 01:19 | 39.02932 | -77.25713 | 5981 ft | 226 kts | 78° |
| 2026-05-07 01:19 | 39.02887 | -77.23765 | 5982 ft | 218 kts | 116° |
| 2026-05-07 01:19 | 39.02120 | -77.22149 | 6013 ft | 210 kts | 135° |
| 2026-05-07 01:19 | 39.01170 | -77.20717 | 6006 ft | 209 kts | 139° |
| 2026-05-07 01:20 | 39.00203 | -77.19320 | 6004 ft | 209 kts | 139° |
| 2026-05-07 01:20 | 38.99232 | -77.17927 | 5996 ft | 209 kts | 139° |
| 2026-05-07 01:20 | 38.98234 | -77.16545 | 5989 ft | 207 kts | 146° |
| 2026-05-07 01:20 | 38.97035 | -77.15745 | 5989 ft | 192 kts | 173° |
| 2026-05-07 01:21 | 38.95730 | -77.15401 | 5995 ft | 190 kts | 178° |
| 2026-05-07 01:21 | 38.94418 | -77.15128 | 5993 ft | 190 kts | 179° |
| 2026-05-07 01:21 | 38.93100 | -77.14867 | 5992 ft | 189 kts | 180° |
| 2026-05-07 01:21 | 38.91801 | -77.14610 | 5989 ft | 188 kts | 179° |
| 2026-05-07 01:22 | 38.90506 | -77.14361 | 5989 ft | 190 kts | 179° |
| 2026-05-07 01:22 | 38.89178 | -77.14101 | 5988 ft | 190 kts | 180° |
| 2026-05-07 01:22 | 38.87875 | -77.13837 | 5985 ft | 191 kts | 180° |
| 2026-05-07 01:22 | 38.86559 | -77.13575 | 5987 ft | 190 kts | 180° |
| 2026-05-07 01:23 | 38.85244 | -77.13313 | 5985 ft | 190 kts | 179° |
| 2026-05-07 01:23 | 38.83942 | -77.13056 | 5987 ft | 190 kts | 179° |
| 2026-05-07 01:23 | 38.82623 | -77.12803 | 5986 ft | 190 kts | 179° |
| 2026-05-07 01:23 | 38.81313 | -77.12550 | 5988 ft | 191 kts | 180° |
| 2026-05-07 01:24 | 38.79985 | -77.12287 | 5986 ft | 190 kts | 179° |
| 2026-05-07 01:24 | 38.78675 | -77.12032 | 5986 ft | 190 kts | 179° |
| 2026-05-07 01:24 | 38.77361 | -77.11780 | 5986 ft | 190 kts | 179° |
| 2026-05-07 01:24 | 38.76041 | -77.11523 | 5985 ft | 190 kts | 180° |
| 2026-05-07 01:25 | 38.74732 | -77.11261 | 5939 ft | 192 kts | 179° |
| 2026-05-07 01:25 | 38.73390 | -77.11001 | 5498 ft | 198 kts | 179° |
| 2026-05-07 01:25 | 38.72022 | -77.10763 | 5016 ft | 204 kts | 179° |
| 2026-05-07 01:25 | 38.70591 | -77.10537 | 4531 ft | 209 kts | 179° |
| 2026-05-07 01:26 | 38.69134 | -77.10327 | 4037 ft | 212 kts | 180° |
| 2026-05-07 01:26 | 38.67667 | -77.10125 | 3546 ft | 212 kts | 179° |
| 2026-05-07 01:26 | 38.66201 | -77.09931 | 3111 ft | 208 kts | 179° |
| 2026-05-07 01:26 | 38.64827 | -77.09759 | 2987 ft | 195 kts | 179° |
| 2026-05-07 01:27 | 38.63498 | -77.09349 | 2968 ft | 201 kts | 154° |
| 2026-05-07 01:27 | 38.62547 | -77.08020 | 2971 ft | 207 kts | 114° |
| 2026-05-07 01:27 | 38.62281 | -77.06213 | 2994 ft | 207 kts | 88° |
| 2026-05-07 01:27 | 38.62691 | -77.04514 | 2971 ft | 200 kts | 49° |
| 2026-05-07 01:28 | 38.63696 | -77.03316 | 2997 ft | 196 kts | 32° |
| 2026-05-07 01:28 | 38.64816 | -77.02321 | 2984 ft | 192 kts | 20° |
| 2026-05-07 01:28 | 38.66083 | -77.01926 | 2987 ft | 184 kts | 358° |
| 2026-05-07 01:28 | 38.67354 | -77.01933 | 2988 ft | 182 kts | 351° |
| 2026-05-07 01:29 | 38.68610 | -77.02055 | 2955 ft | 181 kts | 350° |
| 2026-05-07 01:29 | 38.69856 | -77.02196 | 2751 ft | 179 kts | 349° |
| 2026-05-07 01:29 | 38.71090 | -77.02334 | 2518 ft | 177 kts | 350° |
| 2026-05-07 01:29 | 38.72309 | -77.02463 | 2320 ft | 175 kts | 351° |
| 2026-05-07 01:30 | 38.73534 | -77.02589 | 2079 ft | 175 kts | 352° |
| 2026-05-07 01:30 | 38.74747 | -77.02711 | 1841 ft | 171 kts | 351° |
| 2026-05-07 01:30 | 38.75887 | -77.02825 | 1603 ft | 156 kts | 351° |
| 2026-05-07 01:30 | 38.76961 | -77.02937 | 1402 ft | 156 kts | 351° |
| 2026-05-07 01:31 | 38.78066 | -77.03052 | 1214 ft | 165 kts | 352° |
| 2026-05-07 01:31 | 38.79184 | -77.03165 | 982 ft | 155 kts | 353° |
| 2026-05-07 01:31 | 38.80232 | -77.03271 | 784 ft | 151 kts | 352° |
| 2026-05-07 01:31 | 38.81306 | -77.03407 | 612 ft | 156 kts | 353° |
| 2026-05-07 01:32 | 38.82404 | -77.03525 | 392 ft | 161 kts | 357° |
| 2026-05-07 01:32 | 38.83493 | -77.03601 | 158 ft | 150 kts | 354° |
| 2026-05-07 01:32 | 38.84512 | -77.03709 | 29 ft | 143 kts | 355° |
| 2026-05-07 01:32 | 38.85389 | -77.03803 | 21 ft | 97 kts | 355° |
| 2026-05-07 01:33 | 38.85817 | -77.03847 | 18 ft | 34 kts | 354° |
| 2026-05-07 01:33 | 38.85899 | -77.03959 | 19 ft | 0 kts | 243° |
| 2026-05-07 01:34 | 38.85886 | -77.03976 | 19 ft | 7 kts | 211° |
| 2026-05-07 01:35 | 38.85662 | -77.03966 | 20 ft | 18 kts | 172° |
| 2026-05-07 01:35 | 38.85565 | -77.03974 | 22 ft | 8 kts | 237° |
| 2026-05-07 01:35 | 38.85546 | -77.04045 | 24 ft | 7 kts | 252° |
| 2026-05-07 01:36 | 38.85537 | -77.04099 | 25 ft | 5 kts | 286° |
| 2026-05-07 01:36 | 38.85549 | -77.04137 | 25 ft | 4 kts | 298° |
| 2026-05-07 01:36 | 38.85571 | -77.04166 | 26 ft | 2 kts | 317° |
| 2026-05-07 01:36 | 38.85577 | -77.04172 | 26 ft | 0 kts | 317° |